This is the latest recevied weather packets stored in our database for station/object SQ9RHX-11. If no packets are shown the sender has not sent any weather packets the latest 10 day(s).
| Time | Temp. | Humidity | Pressure | Rain* | Wind** | Luminosity | Snow |
|---|---|---|---|---|---|---|---|
| 1777813294 | 29.44° C | 23% | 1015.1 hPa | - | - | - | - |
| 1777811494 | 29.44° C | 24% | 1015.2 hPa | - | - | - | - |
| 1777809694 | 27.22° C | 25% | 1015.6 hPa | - | - | - | - |
| 1777807894 | 27.78° C | 24% | 1016.1 hPa | - | - | - | - |
| 1777806094 | 27.78° C | 23% | 1016.3 hPa | - | - | - | - |
| 1777804294 | 28.33° C | 23% | 1016.5 hPa | - | - | - | - |
| 1777802494 | 26.67° C | 25% | 1016.7 hPa | - | - | - | - |
| 1777800694 | 26.67° C | 25% | 1017.1 hPa | - | - | - | - |
| 1777798894 | 25° C | 28% | 1017.3 hPa | - | - | - | - |
| 1777797094 | 25.56° C | 30% | 1017.5 hPa | - | - | - | - |
| 1777795294 | 23.33° C | 33% | 1017.5 hPa | - | - | - | - |
| 1777791693 | 19.44° C | 41% | 1017.7 hPa | - | - | - | - |
| 1777789894 | 18.89° C | 42% | 1017.7 hPa | - | - | - | - |
| 1777788095 | 17.78° C | 46% | 1017.7 hPa | - | - | - | - |
| 1777786294 | 16.11° C | 49% | 1017.8 hPa | - | - | - | - |
| 1777784494 | 13.89° C | 55% | 1017.8 hPa | - | - | - | - |
| 1777782694 | 10.56° C | 61% | 1017.8 hPa | - | - | - | - |
| 1777780893 | 8.89° C | 62% | 1017.8 hPa | - | - | - | - |
| 1777779093 | 7.78° C | 63% | 1017.8 hPa | - | - | - | - |
| 1777777294 | 7.78° C | 61% | 1017.7 hPa | - | - | - | - |
| 1777775495 | 7.78° C | 59% | 1018 hPa | - | - | - | - |
| 1777773695 | 9.44° C | 57% | 1018.1 hPa | - | - | - | - |
| 1777771895 | 10° C | 54% | 1018.1 hPa | - | - | - | - |
| 1777768297 | 11.67° C | 53% | 1018.3 hPa | - | - | - | - |
| 1777766497 | 12.22° C | 53% | 1018.6 hPa | - | - | - | - |
* Rain since midnight (hover to see other rain measurements)
** Current wind speed in m/s (hover to see current wind gust speed)